Time;durP1;ratioP1;P1;durP2;ratioP2;P2;SDS_P1;SDS_P2;PMS_P1;PMS_P2;Temp;Humidity;BMP_temperature;BMP_pressure;BME280_temperature;BME280_humidity;BME280_pressure;Samples;Min_cycle;Max_cycle;Signal;HPM_P1;HPM_P2
2023/11/17 00:04:34;;;;;;;4.07;2.70;;;;;;;11.05;100.00;99989.69;31227456;28;20065;-75
2023/11/17 00:19:36;;;;;;;5.20;3.13;;;;;;;11.02;100.00;99995.97;31209572;28;20537;-76
2023/11/17 00:34:40;;;;;;;8.07;3.43;;;;;;;11.06;100.00;99998.59;31209878;28;20410;-75
2023/11/17 00:49:42;;;;;;;5.77;3.47;;;;;;;10.62;100.00;99987.16;31219333;28;21305;-75
2023/11/17 01:04:44;;;;;;;3.90;2.87;;;;;;;10.85;100.00;99991.72;31236195;28;20463;-75
2023/11/17 01:19:46;;;;;;;6.23;3.20;;;;;;;10.87;100.00;100000.16;31233757;28;20049;-75
2023/11/17 01:34:49;;;;;;;6.30;3.57;;;;;;;10.79;100.00;100015.09;31258021;28;20285;-73
2023/11/17 01:49:51;;;;;;;7.47;3.70;;;;;;;10.74;100.00;100007.47;31234695;28;20085;-75
2023/11/17 02:04:53;;;;;;;5.83;3.63;;;;;;;10.79;100.00;100004.25;31259633;28;20084;-75
2023/11/17 02:20:11;;;;;;;6.50;3.90;;;;;;;10.89;100.00;100003.22;31231131;28;20148;-74
2023/11/17 02:35:15;;;;;;;7.03;3.90;;;;;;;10.75;100.00;99992.69;31264114;28;20042;-76
2023/11/17 02:50:31;;;;;;;7.07;4.10;;;;;;;10.57;100.00;99999.28;31227677;28;20058;-75
2023/11/17 03:05:36;;;;;;;6.75;4.32;;;;;;;10.56;100.00;100008.59;31225528;28;20497;-74
2023/11/17 03:20:38;;;;;;;4.70;3.50;;;;;;;10.44;100.00;100016.63;31203412;28;20053;-74
2023/11/17 03:35:40;;;;;;;5.67;3.73;;;;;;;10.58;100.00;100036.09;31233712;28;20057;-74
2023/11/17 03:50:43;;;;;;;5.27;3.60;;;;;;;10.59;100.00;100055.88;31209139;28;20137;-72
2023/11/17 04:05:45;;;;;;;7.60;4.80;;;;;;;10.52;100.00;100040.47;31214454;28;20049;-74
2023/11/17 04:20:48;;;;;;;8.47;5.07;;;;;;;10.39;100.00;100057.84;31218993;28;20418;-74
2023/11/17 04:35:51;;;;;;;8.10;4.23;;;;;;;10.37;100.00;100071.81;31233896;28;20053;-74
2023/11/17 04:50:53;;;;;;;8.07;4.50;;;;;;;10.44;100.00;100074.38;31213189;28;20064;-73
2023/11/17 05:05:55;;;;;;;6.33;4.27;;;;;;;10.49;100.00;100076.59;31234694;28;20483;-75
2023/11/17 05:20:58;;;;;;;8.00;5.07;;;;;;;10.38;100.00;100088.88;31234835;28;20057;-76
2023/11/17 05:36:00;;;;;;;8.03;4.40;;;;;;;10.43;100.00;100096.50;31229999;28;20053;-75
2023/11/17 05:51:09;;;;;;;10.27;5.17;;;;;;;10.70;100.00;100099.84;31211439;28;20068;-75
2023/11/17 06:06:11;;;;;;;7.03;4.60;;;;;;;10.78;100.00;100106.66;31227620;28;20056;-75
2023/11/17 06:21:13;;;;;;;5.20;3.77;;;;;;;10.82;100.00;100118.22;31214806;28;20060;-75
2023/11/17 06:36:15;;;;;;;7.70;4.80;;;;;;;10.88;100.00;100132.81;31231576;28;20053;-74
2023/11/17 06:51:19;;;;;;;6.47;4.40;;;;;;;10.92;100.00;100159.91;31220847;28;20521;-73
2023/11/17 07:06:26;;;;;;;8.73;4.10;;;;;;;10.95;100.00;100153.66;31220820;28;20077;-75
2023/11/17 07:21:32;;;;;;;5.47;3.90;;;;;;;11.16;100.00;100164.06;31224019;28;20050;-73
2023/11/17 07:36:37;;;;;;;8.10;4.63;;;;;;;11.49;100.00;100202.22;31198723;28;20041;-73
2023/11/17 07:51:39;;;;;;;5.47;3.23;;;;;;;11.18;100.00;100207.88;31196920;28;20049;-74
2023/11/17 08:06:42;;;;;;;7.47;3.77;;;;;;;11.13;100.00;100234.78;31221830;28;20136;-75
2023/11/17 08:21:44;;;;;;;6.47;3.50;;;;;;;11.22;100.00;100249.34;31195494;28;20582;-75
2023/11/17 08:36:46;;;;;;;5.57;3.63;;;;;;;11.42;100.00;100257.47;31218371;28;20129;-75
2023/11/17 08:51:50;;;;;;;3.50;2.50;;;;;;;11.69;100.00;100265.47;31215243;28;20053;-76
2023/11/17 09:06:53;;;;;;;5.53;3.10;;;;;;;11.56;100.00;100261.88;31215279;28;20108;-75
2023/11/17 09:21:55;;;;;;;5.67;3.37;;;;;;;11.75;100.00;100247.47;31239955;28;20057;-79
2023/11/17 09:36:57;;;;;;;5.10;3.30;;;;;;;11.86;100.00;100239.84;31235204;28;20096;-72
2023/11/17 09:52:00;;;;;;;6.87;3.90;;;;;;;11.81;100.00;100223.28;31225915;28;20064;-83
2023/11/17 10:07:03;;;;;;;6.87;3.77;;;;;;;11.72;100.00;100237.44;31243462;28;20077;-85
2023/11/17 10:22:07;;;;;;;6.57;3.83;;;;;;;11.76;100.00;100249.03;31245122;28;20053;-81
2023/11/17 10:37:09;;;;;;;7.47;4.13;;;;;;;11.99;100.00;100239.19;31237378;28;20041;-74
2023/11/17 10:52:24;;;;;;;10.73;4.37;;;;;;;12.08;100.00;100258.41;31237439;28;20057;-77
2023/11/17 11:07:26;;;;;;;8.33;4.07;;;;;;;11.85;100.00;100259.31;31244196;28;20057;-78
2023/11/17 11:22:29;;;;;;;8.13;4.10;;;;;;;11.67;100.00;100267.84;31228194;28;20057;-76
2023/11/17 11:37:33;;;;;;;10.27;5.83;;;;;;;11.57;100.00;100280.47;31230292;28;20053;-76
2023/11/17 11:52:46;;;;;;;8.73;5.53;;;;;;;11.57;100.00;100285.91;31236396;28;20402;-75
2023/11/17 12:07:48;;;;;;;9.53;4.43;;;;;;;11.35;100.00;100286.75;31217134;28;20073;-75
2023/11/17 12:23:03;;;;;;;9.00;5.47;;;;;;;11.57;100.00;100296.78;31211925;28;20557;-81
2023/11/17 12:38:13;;;;;;;9.07;5.10;;;;;;;11.72;100.00;100302.69;31267968;28;20057;-82
2023/11/17 12:53:16;;;;;;;13.83;6.27;;;;;;;11.58;100.00;100308.41;31282954;28;20418;-75
2023/11/17 13:08:18;;;;;;;12.90;6.80;;;;;;;11.57;100.00;100317.78;31251203;28;20053;-76
2023/11/17 13:23:20;;;;;;;10.40;4.67;;;;;;;11.46;100.00;100315.25;31258399;28;20061;-76
2023/11/17 13:38:22;;;;;;;10.07;5.50;;;;;;;11.41;100.00;100310.31;31246526;28;20053;-75
2023/11/17 13:53:26;;;;;;;10.93;5.30;;;;;;;11.33;100.00;100305.44;31245623;28;20537;-78
2023/11/17 14:08:30;;;;;;;10.53;4.93;;;;;;;11.16;100.00;100283.63;31261234;28;20056;-78
2023/11/17 14:23:35;;;;;;;12.33;6.40;;;;;;;11.17;100.00;100295.25;31258590;28;20188;-82
2023/11/17 14:38:42;;;;;;;14.67;8.63;;;;;;;11.08;100.00;100282.25;31232416;28;20136;-76
2023/11/17 14:53:44;;;;;;;17.37;7.10;;;;;;;11.27;100.00;100297.78;31251510;28;20053;-74
2023/11/17 15:08:49;;;;;;;11.93;6.10;;;;;;;11.27;100.00;100299.72;31243417;28;20124;-77
2023/11/17 15:23:55;;;;;;;11.00;5.37;;;;;;;11.17;100.00;100306.88;31237749;28;20056;-79
2023/11/17 15:39:00;;;;;;;;;;;;;;;11.22;100.00;100319.22;31225655;28;20064;-77
2023/11/17 15:54:04;;;;;;;11.17;5.40;;;;;;;11.00;100.00;100318.84;31237270;28;19948;-78
2023/11/17 16:09:09;;;;;;;10.33;5.33;;;;;;;11.04;100.00;100330.44;31246322;28;20053;-79
2023/11/17 16:24:13;;;;;;;11.17;5.63;;;;;;;11.04;100.00;100327.72;31219515;28;20860;-78
2023/11/17 16:39:18;;;;;;;11.77;6.13;;;;;;;11.01;100.00;100314.97;31236575;28;20049;-76
2023/11/17 16:54:21;;;;;;;12.87;5.77;;;;;;;10.95;100.00;100303.03;31231386;28;20054;-77
2023/11/17 17:09:25;;;;;;;20.70;8.27;;;;;;;11.01;100.00;100309.53;31234545;28;20072;-78
2023/11/17 17:24:27;;;;;;;21.70;9.60;;;;;;;10.99;100.00;100306.47;31245324;28;20065;-75
2023/11/17 17:39:31;;;;;;;24.20;9.90;;;;;;;10.93;100.00;100298.00;31226245;28;20053;-75
2023/11/17 17:54:33;;;;;;;17.47;9.93;;;;;;;10.89;100.00;100274.81;31232002;28;20061;-79
2023/11/17 18:09:35;;;;;;;16.77;8.43;;;;;;;11.08;100.00;100290.38;31216025;28;20427;-74
2023/11/17 18:24:37;;;;;;;11.67;5.87;;;;;;;11.13;100.00;100317.06;31228716;28;20064;-77
2023/11/17 18:39:39;;;;;;;12.90;6.93;;;;;;;11.17;100.00;100320.47;31220646;28;20057;-77
2023/11/17 18:54:42;;;;;;;24.47;10.37;;;;;;;11.17;100.00;100322.44;31211546;28;20057;-74
2023/11/17 19:09:47;;;;;;;24.57;9.73;;;;;;;11.15;100.00;100311.97;31234063;28;20061;-74
2023/11/17 19:24:49;;;;;;;15.07;8.47;;;;;;;11.12;100.00;100312.03;31216994;28;20057;-74
2023/11/17 19:39:51;;;;;;;41.43;17.83;;;;;;;11.12;100.00;100299.22;31215622;28;20038;-76
2023/11/17 19:54:53;;;;;;;15.80;8.33;;;;;;;11.08;100.00;100301.25;31213493;28;20061;-75
2023/11/17 20:09:55;;;;;;;17.40;7.87;;;;;;;11.17;100.00;100296.03;31203027;28;20057;-73
2023/11/17 20:24:59;;;;;;;16.07;9.60;;;;;;;11.08;100.00;100293.09;31207499;28;20411;-74
2023/11/17 20:40:04;;;;;;;16.73;7.43;;;;;;;11.10;100.00;100288.00;31216647;28;20136;-74
2023/11/17 20:55:12;;;;;;;12.17;6.57;;;;;;;10.94;100.00;100285.19;31220557;28;20065;-74
2023/11/17 21:10:18;;;;;;;13.50;6.07;;;;;;;11.00;100.00;100282.78;31199085;28;20757;-77
2023/11/17 21:25:20;;;;;;;14.63;6.50;;;;;;;10.83;100.00;100284.66;31231942;28;20084;-77
2023/11/17 21:40:25;;;;;;;16.63;6.60;;;;;;;10.82;100.00;100275.72;31245788;28;20084;-76
2023/11/17 21:55:30;;;;;;;16.63;7.00;;;;;;;10.97;100.00;100262.66;31221432;28;20640;-74
2023/11/17 22:10:33;;;;;;;16.30;8.50;;;;;;;10.94;100.00;100260.75;31243946;28;20136;-77
2023/11/17 22:25:36;;;;;;;16.40;8.67;;;;;;;10.83;100.00;100265.63;31229860;28;20063;-75
2023/11/17 22:40:38;;;;;;;16.83;9.17;;;;;;;10.83;100.00;100249.34;31239557;28;20430;-74
2023/11/17 22:55:40;;;;;;;19.87;8.60;;;;;;;10.85;100.00;100247.75;31250853;28;20455;-75
2023/11/17 23:10:42;;;;;;;20.10;8.67;;;;;;;10.80;100.00;100250.16;31222546;28;20409;-73
2023/11/17 23:25:47;;;;;;;15.73;7.93;;;;;;;10.99;100.00;100252.13;31228658;28;20057;-74
2023/11/17 23:40:52;;;;;;;17.17;8.03;;;;;;;10.80;100.00;100250.16;31213672;28;20053;-75
2023/11/17 23:55:56;;;;;;;16.97;8.50;;;;;;;10.84;100.00;100242.72;31212704;28;20419;-75
